MMDO 082345Z 21012KT 12SM SCT200 23/M09 A3016 RMK SLP120 52002 953 8/001= 082345

MMDO 082246Z 18012KT 14SM FEW200 26/M08 A3015 RMK 8/001= 082247

MMDO 082151Z 16009KT 14SM SCT200 26/M10 A3015 RMK 8/001= 082151

MMDO 082049Z 00000KT 14SM SCT200 26/M10 A3016 RMK SLP036 57036 902 8/001= 082049

MMDO 081940Z 14006KT 14SM SCT200 24/M10 A3020 RMK 8/001= 081941

MMDO 081848Z 18006KT 14SM BKN200 22/M10 A3024 RMK 8/008= 081849

MMDO 081741Z 13003KT 12SM BKN200 19/M04 A3029 RMK SLP119 57008 907 8/008 HZY= 081741

MMDO 081642Z 15004KT 12SM BKN200 17/M01 A3032 RMK 8/008 HZY= 081643

MMDO 081547Z 00000KT 12SM BKN200 12/01 A3033 RMK 8/008 HZY= 081547

MMDO 081440Z 11004KT 12SM SCT200 06/01 A3032 RMK SLP199 52014 908 8/001 HZY= 081441

MMDO 081344Z 00000KT 12SM SCT200 02/M01 A3031 RMK 8/001= 081345

MMDO 081249Z 07004KT 10SM SCT200 02/M01 A3029 RMK 8/001 MSG TX MMMX= 081249

MMDO 081156Z 00000KT 7SM SCT200 02/M01 A3027 RMK SLP205 5//// 903 8/001 MSG TX MMMX= 081156

MMDO 081112Z 09004KT 7SM FEW200 02/M01 A3027 NOSIG RMK 8/001= 081112

MMDO 072347Z 27007KT 12SM BKN200 21/M05 A3018 RMK SLP135 52007 962 8/008= 072349

MMDO 072243Z 27012KT 12SM BKN200 23/M05 A3015 RMK 8/008= 072245

MMDO 072147Z 26010KT 14SM BKN200 24/M05 A3015 RMK 8/008= 072147

MMDO 072044Z 20015KT 12SM BKN200 23/M03 A3015 RMK SLP079 57031 973 8/008= 072045

MMDO 071850Z 21012KT 12SM OVC200 22/M04 A3020 RMK 8/007= 071850

MMDO 071742Z 16006KT 12SM OVC200 19/M01 A3026 RMK SLP128 57007 971 8/007= 071743

MMDO 071643Z 20003KT 12SM BKN200 17/00 A3028 RMK 8/008= 071644

MMDO 071548Z 19006KT 12SM BKN200 13/01 A3029 RMK 8/008= 071549

MMDO 071444Z 00000KT 10SM OVC200 07/01 A3029 RMK SLP162 52009 964 8/007 HZY= 071445

MMDO 071340Z 18003KT 10SM BKN200 02/M02 A3027 RMK 8/008= 071340

MMDO 071245Z 17004KT 9SM SCT200 03/M01 A3027 RMK 8/004= 071245

MMDO 071147Z 00000KT 7SM SCT200 02/M01 A3026 RMK SLP159 5//// 957 8/004= 071148

MMDO 071100Z RTD 36002KT 7SM SCT200 03/M01 A3026 RMK 8/004 RTS= 071101

MMDO 070256Z 19008KT 8SM SCT200 13/M03 A3028 RMK 8/001= 070256

MMDO 070149Z 21008KT 8SM SCT200 15/M04 A3026 RMK 8/001= 070150

MMDO 062241Z 25007KT 14SM BKN200 23/M08 A3021 RMK 8/008= 062242

MMDO 062142Z 25003KT 14SM BKN200 22/M06 A3022 RMK 8/008= 062142

MMDO 062042Z 00000KT 14SM BKN200 22/M06 A3023 RMK SLP086 57029 928 8/008= 062043

MMDO 061948Z 16008KT 14SM BKN200 21/M05 A3026 RMK 8/008= 061949

MMDO 061841Z 16006KT 14SM BKN200 20/M04 A3031 RMK 8/008= 061842

MMDO 061743Z 19004KT 14SM BKN200 19/M03 A3034 RMK SLP136 57001 933 8/008= 061744

MMDO 061643Z 10007KT 14SM BKN200 17/M02 A3037 RMK 8/008 ISOL AC= 061644

MMDO 061541Z 17004KT 14SM FEW070 BKN200 14/M01 A3037 RMK 8/078= 061542

MMDO 061446Z 00000KT 14SM FEW080 OVC200 10/02 A3035 RMK SLP200 52017 927 8/077 BINOVC= 061447

MMDO 061345Z 00000KT 12SM SCT070 OVC200 05/01 A3033 RMK 8/077 ISOL ST= 061346

MMDO 061248Z 00000KT 10SM SCT070 OVC200 06/02 A3031 RMK 8/077= 061249

MMDO 061147Z 11004KT 7SM SCT080 OVC200 07/01 A3028 RMK SLP160 5//// 918 8/097= 061148

MMDO 061102Z RTD 13005KT 7SM SCT080 BKN200 08/02 A3028 RMK 8/098 RTS= 061103

MMDO 051248Z 00000KT 8SM BKN030 06/01 A3023 RMK 8/500 MSGTX MMMX= 051248

MMDO 051151Z 00000KT 7SM FEW008 SCT015 07/01 A3021 RMK SLP127 5//// 976 8/600 MSGTX MMMX= 051151

MMDO 051107Z RTD 00000KT 6SM SCT006 BKN020 05/00 A3022 NOSIG RMK 8/600= 051107

MMDO 042253Z 14006KT 12SM BKN200 24/M06 A3021 RMK 8/008 ISOL SC MSGTX MMMX= 042253